Time;durP1;ratioP1;P1;durP2;ratioP2;P2;SDS_P1;SDS_P2;PMS_P1;PMS_P2;Temp;Humidity;BMP_temperature;BMP_pressure;BME280_temperature;BME280_humidity;BME280_pressure;Samples;Min_cycle;Max_cycle;Signal;HPM_P1;HPM_P2
2022/06/14 00:01:38;;;;;;;5.83;5.40;;;;;;;23.86;49.83;95024.81;6146083;28;104364;-55
2022/06/14 00:04:43;;;;;;;6.07;5.50;;;;;;;23.90;49.67;95021.19;6156498;28;103135;-56
2022/06/14 00:07:46;;;;;;;6.70;6.20;;;;;;;23.88;49.51;95020.72;6149652;28;103542;-56
2022/06/14 00:10:50;;;;;;;5.93;5.53;;;;;;;23.89;49.55;95024.97;6138940;28;104143;-55
2022/06/14 00:13:54;;;;;;;7.63;6.20;;;;;;;23.92;49.61;95030.75;6154655;28;102994;-56
2022/06/14 00:16:58;;;;;;;6.70;6.10;;;;;;;23.90;49.38;95031.09;6146797;28;104247;-57
2022/06/14 00:20:02;;;;;;;6.67;5.93;;;;;;;23.91;49.31;95021.97;6159050;28;102993;-56
2022/06/14 00:23:05;;;;;;;5.97;5.47;;;;;;;23.94;49.46;95024.00;6144202;28;104378;-56
2022/06/14 00:26:11;;;;;;;7.17;6.47;;;;;;;23.96;49.62;95027.13;6156318;28;103076;-56
2022/06/14 00:29:14;;;;;;;6.30;5.80;;;;;;;23.97;49.57;95022.56;6156290;28;104225;-56
2022/06/14 00:32:18;;;;;;;6.00;5.50;;;;;;;23.97;49.49;95030.59;6157617;28;104133;-56
2022/06/14 00:35:22;;;;;;;6.23;5.73;;;;;;;23.97;49.32;95028.69;6148046;28;104066;-56
2022/06/14 00:38:25;;;;;;;6.70;6.10;;;;;;;23.94;49.61;95024.00;6156388;28;103267;-56
2022/06/14 00:41:35;;;;;;;6.10;5.70;;;;;;;23.89;49.43;95022.28;6158851;28;104457;-56
2022/06/14 00:44:38;;;;;;;6.17;5.73;;;;;;;23.92;49.09;95023.53;6148572;28;103942;-56
2022/06/14 00:47:44;;;;;;;6.57;5.90;;;;;;;23.90;49.73;95023.84;6138139;28;104672;-56
2022/06/14 00:51:00;;;;;;;6.13;5.73;;;;;;;23.92;49.32;95028.88;6153075;28;104620;-56
2022/06/14 00:54:11;;;;;;;6.00;5.60;;;;;;;23.93;49.79;95029.66;6150709;28;104248;-56
2022/06/14 00:57:20;;;;;;;6.30;5.83;;;;;;;23.92;49.43;95034.22;6131416;28;103331;-56
2022/06/14 01:00:30;;;;;;;7.10;6.50;;;;;;;23.91;49.21;95029.97;6160571;28;103144;-56
2022/06/14 01:03:38;;;;;;;7.77;7.07;;;;;;;23.94;49.19;95031.22;6162211;28;103320;-56
2022/06/14 01:06:51;;;;;;;7.47;6.97;;;;;;;23.93;49.43;95030.44;6162902;28;104444;-54
2022/06/14 01:09:58;;;;;;;6.03;5.60;;;;;;;23.87;49.40;95032.50;6133980;28;104631;-53
2022/06/14 01:13:05;;;;;;;6.13;5.73;;;;;;;23.88;49.45;95023.38;6163265;28;103297;-54
2022/06/14 01:16:10;;;;;;;6.97;6.17;;;;;;;23.90;49.52;95020.41;6162658;28;104223;-55
2022/06/14 01:19:26;;;;;;;6.33;5.83;;;;;;;23.86;49.41;95020.25;6129442;28;103082;-56
2022/06/14 01:22:33;;;;;;;6.30;5.90;;;;;;;23.86;49.47;95019.47;6149131;28;103115;-54
2022/06/14 01:25:40;;;;;;;6.20;5.70;;;;;;;23.88;49.07;95023.38;6138945;28;103204;-53
2022/06/14 01:28:47;;;;;;;6.57;5.97;;;;;;;23.83;49.19;95023.53;6150064;28;103254;-54
2022/06/14 01:31:55;;;;;;;7.80;7.17;;;;;;;23.82;49.00;95013.94;6151094;28;103872;-53
2022/06/14 01:35:02;;;;;;;6.30;5.80;;;;;;;23.85;49.06;95024.00;6161703;28;104547;-54
2022/06/14 01:38:10;;;;;;;6.43;6.03;;;;;;;23.86;49.25;95019.47;6147819;28;103130;-54
2022/06/14 01:41:28;;;;;;;6.50;6.10;;;;;;;23.80;49.18;95026.84;6147524;28;103271;-53
2022/06/14 01:44:41;;;;;;;6.87;6.27;;;;;;;23.76;48.87;95019.78;6157000;28;103189;-53
2022/06/14 01:47:54;;;;;;;7.20;6.00;;;;;;;23.73;49.33;95029.22;6159977;28;103067;-53
2022/06/14 01:54:39;;;;;;;6.70;6.30;;;;;;;23.71;49.21;95027.97;6145029;28;103078;-56
2022/06/14 01:57:51;;;;;;;6.77;6.27;;;;;;;23.69;49.16;95036.31;6162243;28;104091;-56
2022/06/14 02:01:03;;;;;;;6.00;5.60;;;;;;;23.62;49.47;95027.97;6155040;28;103173;-56
2022/06/14 02:07:42;;;;;;;7.23;6.30;;;;;;;23.59;49.42;95031.28;6158680;28;103244;-57
2022/06/14 02:10:56;;;;;;;15.37;14.07;;;;;;;23.62;49.67;95035.19;6162328;28;103064;-56
2022/06/14 02:14:08;;;;;;;15.20;14.00;;;;;;;23.66;49.51;95036.91;6160491;28;102976;-56
2022/06/14 02:17:14;;;;;;;12.37;11.37;;;;;;;23.71;49.55;95041.34;6149386;28;103271;-56
2022/06/14 02:20:21;;;;;;;9.70;8.90;;;;;;;23.70;49.24;95031.75;6161652;28;103130;-56
2022/06/14 02:23:27;;;;;;;9.47;8.77;;;;;;;23.67;49.72;95027.00;6154722;28;102770;-56
2022/06/14 02:26:37;;;;;;;9.73;8.83;;;;;;;23.75;49.79;95037.72;6136606;28;104263;-55
2022/06/14 02:29:45;;;;;;;10.93;10.03;;;;;;;23.76;49.63;95036.59;6155560;28;103111;-56
2022/06/14 02:32:58;;;;;;;11.07;10.17;;;;;;;23.76;49.61;95041.16;6161177;28;102969;-56
2022/06/14 02:36:06;;;;;;;10.80;9.90;;;;;;;23.75;49.79;95044.94;6162209;28;102917;-55
2022/06/14 02:39:13;;;;;;;9.87;8.80;;;;;;;23.72;49.67;95053.59;6150015;28;104364;-55
2022/06/14 02:42:23;;;;;;;8.50;7.90;;;;;;;23.69;49.69;95049.66;6158055;28;103171;-56
2022/06/14 02:45:30;;;;;;;8.87;8.10;;;;;;;23.73;49.46;95058.63;6158786;28;103218;-56
2022/06/14 02:48:41;;;;;;;8.20;7.60;;;;;;;23.73;49.54;95057.84;6161491;28;103102;-56
2022/06/14 02:51:48;;;;;;;7.83;7.20;;;;;;;23.67;48.91;95069.75;6148187;28;103129;-56
2022/06/14 02:54:57;;;;;;;8.07;7.13;;;;;;;23.60;48.78;95081.72;6159077;28;104640;-56
2022/06/14 02:58:08;;;;;;;8.07;7.57;;;;;;;23.62;49.01;95073.38;6160776;28;104235;-56
2022/06/14 03:01:17;;;;;;;8.17;7.40;;;;;;;23.60;49.28;95076.38;6146936;28;104282;-53
2022/06/14 03:04:24;;;;;;;8.63;7.90;;;;;;;23.57;48.95;95078.88;6161536;28;104029;-53
2022/06/14 03:07:33;;;;;;;7.03;6.53;;;;;;;23.53;49.58;95080.63;6161402;28;104032;-53
2022/06/14 03:10:45;;;;;;;8.40;7.70;;;;;;;23.45;49.16;95082.16;6161640;28;102985;-53
2022/06/14 03:13:57;;;;;;;7.83;7.17;;;;;;;23.48;49.08;95080.75;6141901;28;103797;-53
2022/06/14 03:17:17;;;;;;;7.53;6.77;;;;;;;23.40;49.68;95081.56;6161338;28;104136;-53
2022/06/14 03:20:44;;;;;;;7.60;6.90;;;;;;;23.43;49.44;95080.91;6160076;28;103536;-58
2022/06/14 03:23:53;;;;;;;7.27;6.70;;;;;;;23.66;49.22;95086.88;6143628;28;103222;-57
2022/06/14 03:27:02;;;;;;;7.37;6.60;;;;;;;23.72;49.13;95091.78;6148557;28;104211;-58
2022/06/14 03:30:13;;;;;;;9.60;6.00;;;;;;;23.73;49.45;95085.34;6155223;28;103180;-53
2022/06/14 03:33:22;;;;;;;6.87;6.03;;;;;;;23.56;49.20;95080.00;6156255;28;104734;-53
2022/06/14 03:36:26;;;;;;;6.03;5.60;;;;;;;23.47;49.29;95071.97;6149017;28;104302;-53
2022/06/14 03:39:34;;;;;;;6.30;5.70;;;;;;;23.44;49.28;95066.47;6153840;28;103050;-57
2022/06/14 03:42:37;;;;;;;6.90;5.80;;;;;;;23.58;50.02;95072.44;6151745;28;103997;-56
2022/06/14 03:45:50;;;;;;;7.67;5.83;;;;;;;23.66;49.93;95074.31;6145553;28;103247;-56
2022/06/14 03:48:58;;;;;;;6.60;5.90;;;;;;;23.71;52.75;95074.19;6134884;28;103180;-54
2022/06/14 03:52:13;;;;;;;6.93;6.37;;;;;;;23.77;51.21;95078.25;6136514;28;105446;-56
2022/06/14 03:55:30;;;;;;;7.00;6.30;;;;;;;23.82;50.76;95080.75;6135585;28;104315;-56
2022/06/14 03:58:51;;;;;;;7.00;6.50;;;;;;;23.86;50.17;95084.38;6133823;28;104951;-56
2022/06/14 04:02:04;;;;;;;6.87;6.27;;;;;;;23.93;50.43;95086.56;6153694;28;104049;-57
2022/06/14 04:05:16;;;;;;;6.83;6.33;;;;;;;23.94;50.16;95077.44;6151548;28;103416;-57
2022/06/14 04:08:31;;;;;;;7.03;6.53;;;;;;;23.99;50.92;95087.19;6134728;28;103360;-54
2022/06/14 04:11:50;;;;;;;6.53;6.13;;;;;;;24.00;51.20;95094.91;6143313;28;104195;-55
2022/06/14 04:15:11;;;;;;;6.80;6.20;;;;;;;24.01;51.36;95103.72;6145690;28;103097;-55
2022/06/14 04:18:38;;;;;;;6.47;5.97;;;;;;;23.99;50.95;95093.31;6136827;28;104190;-56
2022/06/14 04:21:53;;;;;;;6.30;5.70;;;;;;;24.01;50.95;95095.69;6125337;28;104452;-56
2022/06/14 04:25:01;;;;;;;6.90;6.40;;;;;;;24.03;51.10;95093.53;6144380;28;103976;-55
2022/06/14 04:28:19;;;;;;;6.90;6.30;;;;;;;24.04;51.35;95101.22;6137128;28;103241;-55
2022/06/14 04:31:29;;;;;;;8.00;7.30;;;;;;;24.03;51.53;95101.53;6130610;28;103247;-55
2022/06/14 04:34:41;;;;;;;7.00;6.43;;;;;;;24.05;51.55;95108.16;6151519;28;104629;-55
2022/06/14 04:37:50;;;;;;;6.73;6.13;;;;;;;24.06;51.54;95116.94;6148835;28;102846;-56
2022/06/14 04:40:58;;;;;;;7.00;6.40;;;;;;;24.07;51.51;95123.88;6154384;28;103230;-58
2022/06/14 04:44:08;;;;;;;7.10;6.60;;;;;;;24.07;51.29;95130.00;6150481;28;103582;-60
2022/06/14 04:47:17;;;;;;;7.57;6.87;;;;;;;24.03;51.68;95129.06;6164952;28;104210;-58
2022/06/14 04:50:25;;;;;;;7.57;6.73;;;;;;;24.01;51.20;95123.22;6164043;28;102745;-57
2022/06/14 04:53:35;;;;;;;8.17;7.40;;;;;;;24.00;50.70;95128.88;6163826;28;103280;-58
2022/06/14 04:56:44;;;;;;;7.20;6.70;;;;;;;23.94;50.71;95133.59;6152376;28;103191;-56
2022/06/14 04:59:52;;;;;;;8.40;6.60;;;;;;;23.88;51.27;95130.28;6164111;28;103245;-58
2022/06/14 05:03:00;;;;;;;7.40;6.80;;;;;;;23.88;50.72;95135.63;6163928;28;103057;-57
2022/06/14 05:06:10;;;;;;;8.70;7.90;;;;;;;23.86;51.01;95135.16;6145157;28;103198;-57
2022/06/14 05:09:19;;;;;;;9.00;8.30;;;;;;;23.79;51.63;95136.72;6138566;28;103179;-57
2022/06/14 05:12:27;;;;;;;9.13;8.23;;;;;;;23.46;52.90;95128.38;6138729;28;103484;-57
2022/06/14 05:15:37;;;;;;;9.60;8.67;;;;;;;23.41;52.48;95126.63;6139938;28;103160;-57
2022/06/14 05:18:47;;;;;;;8.93;8.23;;;;;;;23.57;51.92;95138.44;6130188;28;104818;-58
2022/06/14 05:21:59;;;;;;;8.60;7.30;;;;;;;23.71;51.87;95140.19;6139299;28;103110;-57
2022/06/14 05:25:05;;;;;;;14.73;7.63;;;;;;;23.78;52.57;95129.81;6138733;28;103481;-56
2022/06/14 05:28:12;;;;;;;8.53;7.80;;;;;;;23.85;52.36;95130.13;6133969;28;103379;-56
2022/06/14 05:31:23;;;;;;;9.37;7.33;;;;;;;23.95;53.39;95132.47;6133760;28;103232;-56
2022/06/14 05:34:39;;;;;;;8.00;7.30;;;;;;;23.99;55.42;95148.66;6138726;28;103148;-55
2022/06/14 05:37:50;;;;;;;11.80;7.73;;;;;;;24.01;56.13;95149.94;6138905;28;103242;-56
2022/06/14 05:41:01;;;;;;;8.77;8.07;;;;;;;24.03;55.10;95149.66;6128706;28;104229;-56
2022/06/14 05:44:08;;;;;;;7.30;6.70;;;;;;;24.03;55.64;95147.78;6138769;28;103041;-56
2022/06/14 05:47:17;;;;;;;7.97;7.17;;;;;;;24.03;55.61;95155.78;6139519;28;103079;-56
2022/06/14 05:50:24;;;;;;;7.10;6.40;;;;;;;24.04;54.75;95156.59;6138442;28;103313;-56
2022/06/14 05:53:34;;;;;;;6.40;5.90;;;;;;;24.03;54.99;95155.00;6129671;28;104248;-56
2022/06/14 05:56:42;;;;;;;7.60;6.70;;;;;;;24.00;55.64;95166.31;6147788;28;103853;-55
2022/06/14 05:59:50;;;;;;;8.27;6.93;;;;;;;24.05;55.88;95164.28;6135695;28;102938;-56
2022/06/14 06:02:59;;;;;;;8.00;7.30;;;;;;;24.07;55.55;95172.78;6126867;28;103103;-56
2022/06/14 06:06:07;;;;;;;8.07;7.27;;;;;;;24.07;55.38;95174.66;6139161;28;103943;-56
2022/06/14 06:09:18;;;;;;;11.53;7.93;;;;;;;24.07;55.46;95175.44;6139381;28;103618;-56
2022/06/14 06:12:28;;;;;;;8.10;7.30;;;;;;;24.07;55.66;95170.09;6138212;28;103378;-56
2022/06/14 06:15:37;;;;;;;14.33;9.20;;;;;;;24.09;56.23;95175.13;6128334;28;104244;-56
2022/06/14 06:18:46;;;;;;;9.93;8.40;;;;;;;24.08;53.95;95182.38;6138067;28;103104;-57
2022/06/14 06:21:54;;;;;;;7.90;7.20;;;;;;;24.09;56.01;95175.91;6138444;28;104246;-56
2022/06/14 06:25:02;;;;;;;8.33;7.53;;;;;;;24.12;55.08;95177.16;6133156;28;104628;-56
2022/06/14 06:28:12;;;;;;;9.07;8.27;;;;;;;24.07;55.13;95170.09;6131888;28;103093;-56
2022/06/14 06:31:20;;;;;;;7.80;7.20;;;;;;;24.09;55.21;95178.59;6139158;28;102963;-56
2022/06/14 06:34:23;;;;;;;8.60;7.80;;;;;;;24.07;54.64;95170.09;6137306;28;104102;-56
2022/06/14 06:37:32;;;;;;;8.83;7.20;;;;;;;24.06;54.42;95173.88;6127333;28;103927;-56
2022/06/14 06:41:49;;;;;;;7.40;6.70;;;;;;;24.13;55.53;95181.41;6137685;28;103040;-53
2022/06/14 06:44:08;;;;;;;7.93;7.23;;;;;;;24.15;55.18;95179.22;6137748;28;103205;-54
2022/06/14 06:47:14;;;;;;;12.43;9.07;;;;;;;24.16;57.32;95184.25;6137772;28;103214;-54
2022/06/14 06:50:23;;;;;;;15.30;9.20;;;;;;;24.21;58.89;95177.97;6127640;28;103834;-54
2022/06/14 06:53:34;;;;;;;11.27;8.20;;;;;;;24.20;58.39;95173.72;6138746;28;103040;-55
2022/06/14 06:56:44;;;;;;;8.87;8.03;;;;;;;24.19;56.33;95183.63;6160152;28;104311;-56
2022/06/14 06:59:51;;;;;;;9.17;7.80;;;;;;;24.21;56.75;95186.00;6151510;28;104212;-55
2022/06/14 07:02:59;;;;;;;9.33;7.50;;;;;;;24.22;55.81;95181.41;6161932;28;103802;-55
2022/06/14 07:06:06;;;;;;;8.53;7.70;;;;;;;24.20;55.45;95189.75;6160090;28;103188;-55
2022/06/14 07:09:17;;;;;;;8.17;7.37;;;;;;;24.17;55.06;95193.81;6159517;28;103520;-56
2022/06/14 07:12:28;;;;;;;7.60;6.97;;;;;;;24.17;54.53;95206.41;6147981;28;102695;-53
2022/06/14 07:15:39;;;;;;;6.70;6.20;;;;;;;24.15;53.32;95198.72;6159234;28;103264;-56
2022/06/14 07:18:46;;;;;;;7.00;6.50;;;;;;;24.15;53.11;95198.72;6158939;28;103073;-56
2022/06/14 07:21:55;;;;;;;7.40;6.83;;;;;;;24.10;52.99;95195.41;6156362;28;103307;-55
2022/06/14 07:25:04;;;;;;;7.63;7.03;;;;;;;24.12;53.08;95203.91;6156482;28;102881;-56
2022/06/14 07:28:32;;;;;;;7.70;7.10;;;;;;;24.12;52.81;95193.22;6161747;28;103986;-55
2022/06/14 07:31:40;;;;;;;8.07;7.47;;;;;;;24.11;52.73;95205.00;6158102;28;103198;-55
2022/06/14 07:34:45;;;;;;;6.87;6.30;;;;;;;24.13;52.89;95195.56;6150291;28;103428;-56
2022/06/14 07:37:56;;;;;;;7.03;6.47;;;;;;;24.17;53.21;95203.75;6161243;28;103317;-52
2022/06/14 07:41:28;;;;;;;7.30;6.70;;;;;;;24.19;52.93;95205.03;6149367;28;102724;-52
2022/06/14 07:44:44;;;;;;;8.53;7.77;;;;;;;24.23;53.14;95215.09;6134472;28;104296;-53
2022/06/14 07:47:55;;;;;;;8.13;7.47;;;;;;;24.22;53.13;95213.50;6158173;28;104510;-54
2022/06/14 07:51:04;;;;;;;8.10;7.30;;;;;;;24.23;53.34;95215.88;6161319;28;104962;-53
2022/06/14 07:54:16;;;;;;;7.37;6.87;;;;;;;24.23;53.39;95215.88;6160561;28;103287;-53
2022/06/14 07:57:26;;;;;;;8.07;7.23;;;;;;;24.23;53.41;95220.44;6150555;28;104033;-53
2022/06/14 08:04:03;;;;;;;7.17;6.67;;;;;;;24.26;53.66;95209.88;6160009;28;103064;-54
2022/06/14 08:07:10;;;;;;;7.50;7.00;;;;;;;24.29;53.81;95213.81;6155441;28;103049;-54
2022/06/14 08:10:19;;;;;;;8.80;7.23;;;;;;;24.34;53.81;95216.31;6155544;28;103716;-54
2022/06/14 08:13:28;;;;;;;7.60;7.00;;;;;;;24.36;53.97;95212.25;6161147;28;104214;-53
2022/06/14 08:16:33;;;;;;;7.23;6.63;;;;;;;24.38;54.22;95218.06;6157627;28;103838;-55
2022/06/14 08:19:42;;;;;;;7.20;6.70;;;;;;;24.40;54.49;95204.38;6136194;28;103142;-53
2022/06/14 08:22:51;;;;;;;6.73;6.23;;;;;;;24.41;54.14;95206.72;6135988;28;103045;-55
2022/06/14 08:26:00;;;;;;;6.20;5.80;;;;;;;24.43;54.35;95203.75;6136266;28;102894;-55
2022/06/14 08:29:13;;;;;;;6.70;6.30;;;;;;;24.44;54.27;95198.06;6136506;28;103728;-55
2022/06/14 08:32:26;;;;;;;6.40;6.00;;;;;;;24.46;54.14;95201.22;6125502;28;103001;-53
2022/06/14 08:35:35;;;;;;;6.67;6.07;;;;;;;24.52;53.95;95190.34;6134814;28;103320;-54
2022/06/14 08:38:42;;;;;;;7.37;6.70;;;;;;;24.55;54.16;95190.50;6135454;28;103184;-54
2022/06/14 08:41:59;;;;;;;7.27;6.77;;;;;;;24.60;54.48;95192.22;6125979;28;104131;-54
2022/06/14 08:45:07;;;;;;;7.50;6.90;;;;;;;24.59;54.45;95180.75;6135337;28;103061;-54
2022/06/14 08:48:30;;;;;;;6.97;6.37;;;;;;;24.60;54.69;95189.56;6136177;28;103100;-54
2022/06/14 08:51:35;;;;;;;8.07;7.40;;;;;;;24.60;55.04;95186.88;6135689;28;103071;-54
2022/06/14 08:55:03;;;;;;;8.33;7.40;;;;;;;24.54;54.92;95196.97;6135878;28;104174;-54
2022/06/14 08:58:32;;;;;;;7.53;6.87;;;;;;;24.58;54.42;95191.75;6159930;28;103072;-54
2022/06/14 09:01:55;;;;;;;7.40;6.90;;;;;;;24.61;54.11;95183.09;6159350;28;102813;-54
2022/06/14 09:05:39;;;;;;;7.50;7.00;;;;;;;24.64;53.49;95177.88;6149162;28;104658;-54
2022/06/14 09:09:19;;;;;;;7.70;6.90;;;;;;;24.65;52.85;95170.66;6113313;28;104264;-54
2022/06/14 09:12:57;;;;;;;7.97;7.37;;;;;;;24.62;52.86;95169.41;6159651;28;103258;-54
2022/06/14 09:16:32;;;;;;;6.87;6.47;;;;;;;24.61;52.88;95173.19;6148519;28;103301;-54
2022/06/14 09:19:58;;;;;;;6.57;6.07;;;;;;;24.61;52.65;95167.03;6160750;28;104096;-55
2022/06/14 09:23:30;;;;;;;7.23;6.63;;;;;;;24.57;52.69;95174.91;6163232;28;103011;-54
2022/06/14 09:26:45;;;;;;;8.13;7.50;;;;;;;24.56;52.65;95181.38;6152946;28;104548;-54
2022/06/14 09:30:20;;;;;;;6.83;6.33;;;;;;;24.50;52.54;95178.06;6160189;28;104197;-54
2022/06/14 09:33:51;;;;;;;6.47;6.00;;;;;;;24.46;52.19;95174.47;6164066;28;104255;-54
2022/06/14 09:37:14;;;;;;;6.70;6.20;;;;;;;24.45;52.30;95167.53;6163929;28;104507;-54
2022/06/14 09:40:44;;;;;;;6.90;6.30;;;;;;;24.46;52.59;95177.13;6152400;28;104300;-55
2022/06/14 09:44:26;;;;;;;7.37;6.63;;;;;;;24.44;52.48;95179.34;6162518;28;103444;-54
2022/06/14 09:48:03;;;;;;;7.03;6.53;;;;;;;24.43;51.99;95175.09;6163095;28;103200;-58
2022/06/14 09:51:39;;;;;;;6.93;6.23;;;;;;;24.33;52.29;95183.44;6135665;28;103100;-57
2022/06/14 09:55:14;;;;;;;6.73;6.23;;;;;;;24.22;52.24;95192.13;6149683;28;103322;-57
2022/06/14 09:58:38;;;;;;;6.10;5.60;;;;;;;24.21;51.66;95191.34;6138013;28;104124;-57
2022/06/14 10:01:51;;;;;;;6.47;5.50;;;;;;;24.23;51.34;95183.00;6152646;28;104141;-57
2022/06/14 10:05:10;;;;;;;6.40;5.90;;;;;;;24.27;51.78;95179.38;6163231;28;104230;-57
2022/06/14 10:08:42;;;;;;;6.07;5.67;;;;;;;24.31;52.05;95179.50;6163537;28;103198;-58
2022/06/14 10:11:57;;;;;;;6.40;5.90;;;;;;;24.34;52.05;95168.97;6156001;28;104179;-57
2022/06/14 10:15:08;;;;;;;6.53;6.00;;;;;;;24.35;52.71;95161.72;6157287;28;104026;-57
2022/06/14 10:18:25;;;;;;;7.10;6.40;;;;;;;24.34;52.92;95160.94;6161921;28;102998;-57
2022/06/14 10:21:34;;;;;;;6.27;5.87;;;;;;;24.33;53.63;95151.34;6162275;28;103221;-57
2022/06/14 10:24:45;;;;;;;6.50;6.00;;;;;;;24.19;52.15;95158.75;6152731;28;104982;-57
2022/06/14 10:28:11;;;;;;;5.37;4.93;;;;;;;24.05;49.92;95150.91;6162832;28;103177;-55
2022/06/14 10:31:32;;;;;;;4.73;4.43;;;;;;;24.08;49.22;95154.84;6162197;28;103198;-57
2022/06/14 10:34:41;;;;;;;5.70;5.20;;;;;;;24.17;48.85;95164.41;6157114;28;104561;-57
2022/06/14 10:38:08;;;;;;;4.40;4.07;;;;;;;24.22;48.40;95163.50;6157478;28;104672;-57
2022/06/14 10:41:24;;;;;;;4.60;4.30;;;;;;;24.28;49.32;95172.91;6162580;28;103077;-56
2022/06/14 10:44:39;;;;;;;4.00;3.70;;;;;;;24.27;48.65;95176.69;6161154;28;103026;-52
2022/06/14 10:47:59;;;;;;;4.93;4.53;;;;;;;24.32;48.35;95181.88;6137891;28;103414;-52
2022/06/14 10:51:19;;;;;;;4.50;4.20;;;;;;;24.32;48.88;95176.53;6159567;28;104159;-53
2022/06/14 10:54:36;;;;;;;4.97;4.43;;;;;;;24.33;49.22;95183.44;6162033;28;103303;-52
2022/06/14 10:57:57;;;;;;;4.70;4.30;;;;;;;24.34;49.54;95189.56;6151350;28;103876;-52
2022/06/14 11:01:13;;;;;;;4.90;4.40;;;;;;;24.33;49.46;95199.47;6162868;28;103043;-53
2022/06/14 11:04:25;;;;;;;5.43;5.03;;;;;;;24.33;49.37;95196.03;6162319;28;103988;-53
2022/06/14 11:07:47;;;;;;;6.97;4.67;;;;;;;24.36;49.71;95198.88;6162073;28;103369;-53
2022/06/14 11:11:11;;;;;;;4.90;4.60;;;;;;;24.35;49.78;95202.63;6151669;28;102942;-52
2022/06/14 11:14:21;;;;;;;4.53;4.20;;;;;;;24.35;49.64;95191.16;6161987;28;104054;-53
2022/06/14 11:17:44;;;;;;;5.17;4.67;;;;;;;24.34;49.87;95194.91;6161195;28;103075;-53
2022/06/14 11:21:01;;;;;;;5.27;4.77;;;;;;;24.35;49.42;95196.50;6151569;28;104860;-53
2022/06/14 11:24:13;;;;;;;4.23;3.93;;;;;;;24.33;49.62;95188.78;6161115;28;104200;-52
2022/06/14 11:27:26;;;;;;;5.67;4.70;;;;;;;24.34;50.12;95190.34;6160993;28;103211;-52
2022/06/14 11:30:40;;;;;;;4.60;4.30;;;;;;;24.34;49.74;95190.34;6161583;28;104559;-52
2022/06/14 11:34:15;;;;;;;4.90;4.50;;;;;;;24.33;50.02;95180.75;6150915;28;104012;-52
2022/06/14 11:37:54;;;;;;;4.57;4.27;;;;;;;24.34;49.83;95179.66;6160559;28;103060;-52
2022/06/14 11:41:01;;;;;;;5.10;4.53;;;;;;;24.35;49.78;95177.78;6161355;28;102991;-53
2022/06/14 11:44:20;;;;;;;5.50;5.10;;;;;;;24.34;50.24;95174.31;6150495;28;104229;-53
2022/06/14 11:47:31;;;;;;;5.10;4.70;;;;;;;24.34;50.50;95168.97;6161492;28;104142;-52
2022/06/14 11:50:41;;;;;;;5.17;4.87;;;;;;;24.35;50.29;95169.75;6161213;28;103815;-52
2022/06/14 11:54:02;;;;;;;5.13;4.73;;;;;;;24.35;50.46;95165.19;6157343;28;105706;-52
2022/06/14 11:57:14;;;;;;;4.80;4.50;;;;;;;24.35;50.40;95165.19;6155721;28;104306;-51
2022/06/14 12:00:32;;;;;;;5.10;4.80;;;;;;;24.36;50.46;95161.44;6160771;28;103221;-53
2022/06/14 12:04:34;;;;;;;5.87;5.47;;;;;;;24.36;50.76;95164.09;6160824;28;102764;-53
2022/06/14 12:07:39;;;;;;;4.87;4.47;;;;;;;24.37;50.76;95168.34;6139618;28;104010;-53
2022/06/14 12:10:49;;;;;;;5.70;5.30;;;;;;;24.38;50.58;95161.91;6161085;28;104205;-52
2022/06/14 12:14:34;;;;;;;5.87;5.20;;;;;;;24.39;50.80;95157.34;6160579;28;103969;-52
2022/06/14 12:17:44;;;;;;;5.07;4.67;;;;;;;24.40;51.15;95156.22;6147358;28;104289;-52
2022/06/14 12:20:58;;;;;;;5.97;5.37;;;;;;;24.42;51.07;95165.50;6160209;28;103012;-52
2022/06/14 12:24:06;;;;;;;4.80;4.50;;;;;;;24.43;50.57;95150.25;6161030;28;103977;-51
2022/06/14 12:27:11;;;;;;;4.37;4.07;;;;;;;24.44;50.31;95141.91;6160352;28;103211;-51
2022/06/14 12:30:18;;;;;;;4.80;4.43;;;;;;;24.44;50.00;95155.28;6149536;28;104026;-52
2022/06/14 12:33:30;;;;;;;4.50;4.10;;;;;;;24.42;49.92;95144.09;6160522;28;103307;-52
2022/06/14 12:36:42;;;;;;;4.63;4.23;;;;;;;24.44;49.89;95152.59;6160721;28;104513;-52
2022/06/14 12:39:52;;;;;;;4.23;3.90;;;;;;;24.44;50.14;95147.25;6150152;28;103075;-51
2022/06/14 12:43:03;;;;;;;4.83;4.17;;;;;;;24.43;49.74;95151.03;6159484;28;103140;-52
2022/06/14 12:46:10;;;;;;;4.97;4.13;;;;;;;24.42;49.89;95138.75;6160453;28;103397;-52
2022/06/14 12:49:21;;;;;;;4.57;4.17;;;;;;;24.42;50.01;95130.72;6160103;28;103189;-52
2022/06/14 12:52:29;;;;;;;4.30;4.00;;;;;;;24.42;50.08;95130.72;6148870;28;103355;-52
2022/06/14 12:55:37;;;;;;;3.97;3.67;;;;;;;24.42;50.43;95130.72;6143226;28;103154;-52
2022/06/14 12:58:50;;;;;;;4.23;3.93;;;;;;;24.43;50.15;95129.63;6139772;28;103391;-52
2022/06/14 13:02:05;;;;;;;5.07;4.47;;;;;;;24.43;50.17;95121.59;6134677;28;103745;-52
2022/06/14 13:05:17;;;;;;;4.83;4.47;;;;;;;24.43;49.96;95121.59;6134192;28;103113;-52
2022/06/14 13:08:29;;;;;;;4.67;4.23;;;;;;;24.43;50.54;95123.50;6140003;28;103991;-52
2022/06/14 13:11:38;;;;;;;4.70;4.30;;;;;;;24.44;50.22;95114.34;6140123;28;103720;-52
2022/06/14 13:14:53;;;;;;;6.20;4.90;;;;;;;24.45;50.34;95116.72;6128592;28;103412;-52
2022/06/14 13:18:09;;;;;;;4.87;4.47;;;;;;;24.46;50.13;95114.81;6139568;28;104282;-52
2022/06/14 13:21:23;;;;;;;5.87;4.50;;;;;;;24.46;50.21;95115.59;6139573;28;103624;-52
2022/06/14 13:24:37;;;;;;;4.30;4.07;;;;;;;24.48;50.44;95116.06;6134958;28;104136;-52
2022/06/14 13:27:50;;;;;;;4.60;4.30;;;;;;;24.47;50.29;95106.47;6133770;28;103411;-51
2022/06/14 13:31:24;;;;;;;4.73;4.40;;;;;;;24.48;50.26;95110.72;6138946;28;103241;-52
2022/06/14 13:34:40;;;;;;;4.67;4.23;;;;;;;24.48;50.37;95102.69;6137919;28;103140;-53
2022/06/14 13:37:48;;;;;;;4.50;4.20;;;;;;;24.48;50.11;95105.38;6128090;28;104750;-52
2022/06/14 13:40:55;;;;;;;4.27;3.90;;;;;;;24.48;50.15;95109.94;6139741;28;102977;-53
2022/06/14 13:44:05;;;;;;;5.17;4.33;;;;;;;24.50;50.42;95107.72;6139534;28;103602;-56
2022/06/14 13:47:16;;;;;;;4.03;3.83;;;;;;;24.50;50.14;95107.72;6134462;28;103246;-56
2022/06/14 13:50:24;;;;;;;4.57;4.17;;;;;;;24.49;50.09;95103.47;6133262;28;103263;-56
2022/06/14 13:53:32;;;;;;;4.20;3.93;;;;;;;24.48;49.87;95100.00;6142511;28;104406;-56
2022/06/14 13:56:46;;;;;;;4.27;3.90;;;;;;;24.48;49.29;95100.00;6161485;28;103199;-56
2022/06/14 13:59:52;;;;;;;3.80;3.50;;;;;;;24.48;48.70;95094.66;6153397;28;104417;-56
2022/06/14 14:03:13;;;;;;;3.20;3.00;;;;;;;24.49;48.37;95087.44;6163092;28;103446;-57
2022/06/14 14:06:20;;;;;;;4.93;3.43;;;;;;;24.49;48.03;95082.06;6162411;28;102763;-56
2022/06/14 14:09:31;;;;;;;5.53;3.53;;;;;;;24.49;47.54;95082.84;6163205;28;102895;-56
2022/06/14 14:12:39;;;;;;;9.93;3.90;;;;;;;24.51;47.12;95082.53;6151358;28;103339;-56
2022/06/14 14:15:49;;;;;;;4.07;3.77;;;;;;;24.54;47.60;95087.28;6162526;28;103469;-56
2022/06/14 14:19:02;;;;;;;10.13;3.57;;;;;;;24.55;47.48;95077.34;6162579;28;104135;-56
2022/06/14 14:22:11;;;;;;;4.40;4.00;;;;;;;24.57;47.27;95080.50;6152493;28;103209;-56
2022/06/14 14:25:20;;;;;;;6.70;6.10;;;;;;;24.56;47.76;95074.34;6158436;28;103307;-57
2022/06/14 14:28:31;;;;;;;7.57;6.77;;;;;;;24.57;48.24;95075.91;6144039;28;104397;-56
2022/06/14 14:31:41;;;;;;;7.40;6.70;;;;;;;24.60;47.85;95087.88;6135756;28;103158;-56
2022/06/14 14:34:48;;;;;;;7.40;6.13;;;;;;;24.58;47.12;95077.50;6140393;28;103026;-55
2022/06/14 14:37:58;;;;;;;6.93;5.73;;;;;;;24.61;46.20;95078.72;6162016;28;104032;-56
2022/06/14 14:44:35;;;;;;;6.70;4.80;;;;;;;24.60;45.13;95085.97;6152149;28;103113;-56
2022/06/14 14:47:44;;;;;;;5.20;4.70;;;;;;;24.59;45.28;95076.38;6161706;28;102891;-56
2022/06/14 14:50:59;;;;;;;6.77;4.37;;;;;;;24.59;44.75;95072.94;6161829;28;104104;-56
2022/06/14 14:54:06;;;;;;;4.93;3.53;;;;;;;24.62;45.04;95072.28;6155847;28;104133;-56
2022/06/14 14:57:16;;;;;;;5.43;4.10;;;;;;;24.61;45.27;95071.50;6126896;28;104115;-56
2022/06/14 15:05:20;;;;;;;4.77;4.27;;;;;;;24.66;46.12;95081.22;6157082;28;103037;-54
2022/06/14 15:07:33;;;;;;;5.40;4.90;;;;;;;24.72;46.71;95063.94;6152431;28;104227;-55
2022/06/14 15:10:56;;;;;;;6.00;4.40;;;;;;;24.74;46.99;95059.03;6159895;28;102893;-56
2022/06/14 15:14:00;;;;;;;5.47;4.63;;;;;;;24.74;46.53;95067.06;6161455;28;103752;-56